createdAt,value
2022-11-30T00:00:50.773Z,14.65
2022-11-30T00:03:18.476Z,15.52
2022-11-30T00:05:46.025Z,14.18
2022-11-30T00:08:13.376Z,12.75
2022-11-30T00:10:41.239Z,13.88
2022-11-30T00:13:09.377Z,13.90
2022-11-30T00:15:39.922Z,13.88
2022-11-30T00:18:08.833Z,14.93
2022-11-30T00:20:36.065Z,13.68
2022-11-30T00:23:03.398Z,13.63
2022-11-30T00:25:30.755Z,14.20
2022-11-30T00:28:01.052Z,13.73
2022-11-30T00:30:28.451Z,13.93
2022-11-30T00:32:59.110Z,13.90
2022-11-30T00:35:26.628Z,13.95
2022-11-30T00:37:53.931Z,13.98
2022-11-30T00:40:21.342Z,13.73
2022-11-30T00:42:48.555Z,13.98
2022-11-30T00:45:15.786Z,13.63
2022-11-30T00:47:42.994Z,13.10
2022-11-30T00:50:10.597Z,13.95
2022-11-30T00:52:37.895Z,13.65
2022-11-30T00:55:05.572Z,14.27
2022-11-30T00:57:32.921Z,14.25
2022-11-30T01:00:00.316Z,14.25
2022-11-30T01:02:27.780Z,13.88
2022-11-30T01:04:55.115Z,15.15
2022-11-30T01:07:22.404Z,14.73
2022-11-30T01:09:49.936Z,15.68
2022-11-30T01:12:17.186Z,14.88
2022-11-30T01:14:44.906Z,15.30
2022-11-30T01:17:12.639Z,14.32
2022-11-30T01:19:40.080Z,14.73
2022-11-30T01:22:07.381Z,13.80
2022-11-30T01:24:35.040Z,14.57
2022-11-30T01:27:02.278Z,13.93
2022-11-30T01:29:30.801Z,13.90
2022-11-30T01:31:58.334Z,13.55
2022-11-30T01:34:31.355Z,13.70
2022-11-30T01:36:58.677Z,13.43
2022-11-30T01:39:26.067Z,12.27
2022-11-30T01:41:57.287Z,11.23
2022-11-30T01:44:26.608Z,10.75
2022-11-30T01:47:01.961Z,10.63
2022-11-30T01:49:30.704Z,11.45
2022-11-30T01:52:00.073Z,10.85
2022-11-30T01:54:29.190Z,10.68
2022-11-30T01:56:58.552Z,10.73
2022-11-30T01:59:26.862Z,10.85
2022-11-30T02:01:54.840Z,10.98
2022-11-30T02:04:22.278Z,10.80
2022-11-30T02:06:50.138Z,12.20
2022-11-30T02:09:18.905Z,10.93
2022-11-30T02:11:46.534Z,11.35
2022-11-30T02:14:32.452Z,11.93
2022-11-30T02:17:02.739Z,10.93
2022-11-30T02:19:30.098Z,11.20
2022-11-30T02:22:16.430Z,10.85
2022-11-30T02:25:02.329Z,11.65
2022-11-30T02:27:52.770Z,11.95
2022-11-30T02:30:21.737Z,10.77
2022-11-30T02:32:58.596Z,11.75
2022-11-30T02:35:28.630Z,11.38
2022-11-30T02:37:57.445Z,11.88
2022-11-30T02:40:24.763Z,12.18
2022-11-30T02:42:53.364Z,11.60
2022-11-30T02:45:33.030Z,11.40
2022-11-30T02:48:04.360Z,12.23
2022-11-30T02:50:37.052Z,11.35
2022-11-30T02:53:15.705Z,11.77
2022-11-30T02:55:45.643Z,12.27
2022-11-30T02:58:13.946Z,11.32
2022-11-30T03:00:41.181Z,11.38
2022-11-30T03:03:08.663Z,11.82
2022-11-30T03:05:36.010Z,12.10
2022-11-30T03:08:03.364Z,11.90
2022-11-30T03:10:30.708Z,11.48
2022-11-30T03:12:58.880Z,10.98
2022-11-30T03:15:26.319Z,11.00
2022-11-30T03:17:53.794Z,10.38
2022-11-30T03:20:21.183Z,10.93
2022-11-30T03:22:48.576Z,11.10
2022-11-30T03:25:15.888Z,11.40
2022-11-30T03:27:43.314Z,11.10
2022-11-30T03:30:10.936Z,11.10
2022-11-30T03:32:38.292Z,10.88
2022-11-30T03:35:05.814Z,11.13
2022-11-30T03:37:33.157Z,10.88
2022-11-30T03:40:00.482Z,10.68
2022-11-30T03:42:27.745Z,9.98
2022-11-30T03:44:54.960Z,11.45
2022-11-30T03:47:22.611Z,11.27
2022-11-30T03:49:49.908Z,11.32
2022-11-30T03:52:17.401Z,11.35
2022-11-30T03:54:45.098Z,11.40
2022-11-30T03:57:12.923Z,10.45
2022-11-30T03:59:40.213Z,10.43
2022-11-30T04:02:07.732Z,11.32
2022-11-30T04:04:35.108Z,11.27
2022-11-30T04:07:02.458Z,10.85
2022-11-30T04:09:29.867Z,9.98
2022-11-30T04:11:57.337Z,10.45
2022-11-30T04:14:24.574Z,11.13
2022-11-30T04:16:51.982Z,11.95
2022-11-30T04:19:21.026Z,10.65
2022-11-30T04:21:48.352Z,10.05
2022-11-30T04:24:15.761Z,11.50
2022-11-30T04:26:43.167Z,12.15
2022-11-30T04:29:11.190Z,10.82
2022-11-30T04:31:38.636Z,11.45
2022-11-30T04:34:06.052Z,10.98
2022-11-30T04:36:33.328Z,11.82
2022-11-30T04:39:00.867Z,12.07
2022-11-30T04:41:28.359Z,11.13
2022-11-30T04:43:55.593Z,11.85
2022-11-30T04:46:23.108Z,11.70
2022-11-30T04:48:50.551Z,12.57
2022-11-30T04:51:17.897Z,12.13
2022-11-30T04:53:45.220Z,11.68
2022-11-30T04:56:12.714Z,12.38
2022-11-30T04:58:40.145Z,12.13
2022-11-30T05:01:07.996Z,11.50
2022-11-30T05:03:35.392Z,11.73
2022-11-30T05:06:03.014Z,11.70
2022-11-30T05:08:30.575Z,11.68
2022-11-30T05:10:57.933Z,12.27
2022-11-30T05:13:25.831Z,11.65
2022-11-30T05:15:56.482Z,11.98
2022-11-30T05:18:24.026Z,11.40
2022-11-30T05:20:51.994Z,11.88
2022-11-30T05:23:20.384Z,11.77
2022-11-30T05:25:47.770Z,11.75
2022-11-30T05:28:15.180Z,11.73
2022-11-30T05:30:42.875Z,11.48
2022-11-30T05:33:10.317Z,11.75
2022-11-30T05:35:38.855Z,10.70
2022-11-30T05:38:06.973Z,10.43
2022-11-30T05:40:34.354Z,10.07
2022-11-30T05:43:02.204Z,10.40
2022-11-30T05:45:29.730Z,11.35
2022-11-30T05:47:57.266Z,10.82
2022-11-30T05:50:24.570Z,10.45
2022-11-30T05:52:56.170Z,10.18
2022-11-30T05:55:24.094Z,9.05
2022-11-30T05:57:51.487Z,10.07
2022-11-30T06:00:19.126Z,10.20
2022-11-30T06:02:47.849Z,9.55
2022-11-30T06:05:15.305Z,10.15
2022-11-30T06:07:42.550Z,11.30
2022-11-30T06:10:10.144Z,10.48
2022-11-30T06:12:37.454Z,10.60
2022-11-30T06:15:05.046Z,10.70
2022-11-30T06:17:32.384Z,10.60
2022-11-30T06:19:59.729Z,10.57
2022-11-30T06:22:29.482Z,11.32
2022-11-30T06:24:56.864Z,10.90
2022-11-30T06:27:24.089Z,11.07
2022-11-30T06:29:51.538Z,11.43
2022-11-30T06:32:18.822Z,10.13
2022-11-30T06:34:46.427Z,11.38
2022-11-30T06:37:14.049Z,10.93
2022-11-30T06:40:05.278Z,10.85
2022-11-30T06:42:32.574Z,10.27
2022-11-30T06:44:59.973Z,9.93
2022-11-30T06:47:28.033Z,10.70
2022-11-30T06:49:55.655Z,9.95
2022-11-30T06:52:23.058Z,10.15
2022-11-30T06:54:50.689Z,10.15
2022-11-30T06:57:18.062Z,9.93
2022-11-30T06:59:46.654Z,10.25
2022-11-30T07:02:18.347Z,10.65
2022-11-30T07:04:46.459Z,9.40
2022-11-30T07:07:14.338Z,8.98
2022-11-30T07:09:41.758Z,9.63
2022-11-30T07:12:09.477Z,10.65
2022-11-30T07:14:36.747Z,10.05
2022-11-30T07:17:04.808Z,10.23
2022-11-30T07:19:34.510Z,10.70
2022-11-30T07:22:02.196Z,9.50
2022-11-30T07:24:48.745Z,10.23
2022-11-30T07:27:16.448Z,10.23
2022-11-30T07:29:43.706Z,9.95
2022-11-30T07:32:11.353Z,9.85
2022-11-30T07:34:38.719Z,10.88
2022-11-30T07:37:06.091Z,10.13
2022-11-30T07:39:33.323Z,9.18
2022-11-30T07:42:01.948Z,10.80
2022-11-30T07:44:29.193Z,10.63
2022-11-30T07:46:56.580Z,10.68
2022-11-30T07:49:23.868Z,9.80
2022-11-30T07:51:51.253Z,10.05
2022-11-30T07:54:18.646Z,10.20
2022-11-30T07:56:45.996Z,10.40
2022-11-30T07:59:13.961Z,10.35
2022-11-30T08:01:41.535Z,10.85
2022-11-30T08:04:09.162Z,9.93
2022-11-30T08:06:37.076Z,11.25
2022-11-30T08:09:05.967Z,11.38
2022-11-30T08:11:35.115Z,10.77
2022-11-30T08:14:08.470Z,10.65
2022-11-30T08:16:40.306Z,10.38
2022-11-30T08:19:08.109Z,11.18
2022-11-30T08:21:47.121Z,12.30
2022-11-30T08:24:20.334Z,11.95
2022-11-30T08:27:21.007Z,12.02
2022-11-30T08:35:45.648Z,12.82
2022-11-30T08:38:13.344Z,14.95
2022-11-30T08:40:43.348Z,14.70
2022-11-30T08:43:21.118Z,12.68
2022-11-30T08:46:00.448Z,13.38
2022-11-30T08:48:29.058Z,13.57
2022-11-30T08:51:00.680Z,13.80
2022-11-30T08:53:28.089Z,13.95
2022-11-30T08:55:56.188Z,14.23
2022-11-30T08:58:23.736Z,13.65
2022-11-30T09:00:54.287Z,13.40
2022-11-30T09:03:21.780Z,12.73
2022-11-30T09:05:49.203Z,13.52
2022-11-30T09:08:16.662Z,12.93
2022-11-30T09:10:44.160Z,13.07
2022-11-30T09:13:16.599Z,13.23
2022-11-30T09:16:10.182Z,13.68
2022-11-30T09:18:44.482Z,13.30
2022-11-30T09:21:13.314Z,12.93
2022-11-30T09:23:43.257Z,13.02
2022-11-30T09:26:12.243Z,14.13
2022-11-30T09:28:40.123Z,14.70
2022-11-30T09:31:09.063Z,15.02
2022-11-30T09:33:45.183Z,14.77
2022-11-30T09:36:18.410Z,14.48
2022-11-30T09:39:11.168Z,15.10
2022-11-30T09:42:06.712Z,15.75
2022-11-30T09:47:53.969Z,15.90
2022-11-30T09:50:22.770Z,14.85
2022-11-30T09:52:57.007Z,14.93
2022-11-30T09:55:29.543Z,14.23
2022-11-30T09:58:14.723Z,15.00
2022-11-30T10:03:22.007Z,14.30
2022-11-30T10:05:53.077Z,14.85
2022-11-30T10:11:29.385Z,14.52
2022-11-30T10:14:10.600Z,14.35
2022-11-30T10:16:43.346Z,15.30
2022-11-30T10:19:13.844Z,15.63
2022-11-30T10:21:47.510Z,16.85
2022-11-30T10:24:22.587Z,16.58
2022-11-30T10:27:12.114Z,16.27
2022-11-30T10:29:41.425Z,15.70
2022-11-30T10:32:30.114Z,16.60
2022-11-30T10:35:10.484Z,18.50
2022-11-30T10:37:45.685Z,17.75
2022-11-30T10:40:26.973Z,16.98
2022-11-30T10:42:59.002Z,17.13
2022-11-30T10:45:29.154Z,17.63
2022-11-30T10:48:13.628Z,16.33
2022-11-30T10:53:12.811Z,17.08
2022-11-30T10:55:58.775Z,16.73
2022-11-30T10:58:29.020Z,16.80
2022-11-30T11:01:02.986Z,17.63
2022-11-30T11:03:30.756Z,16.38
2022-11-30T11:06:08.902Z,17.63
2022-11-30T11:08:36.403Z,16.08
2022-11-30T11:11:03.829Z,18.10
2022-11-30T11:13:39.016Z,17.50
2022-11-30T11:16:07.644Z,19.73
2022-11-30T11:18:35.921Z,18.13
2022-11-30T11:21:06.736Z,19.13
2022-11-30T11:23:36.183Z,19.00
2022-11-30T11:26:03.604Z,17.83
2022-11-30T11:28:31.218Z,18.48
2022-11-30T11:30:59.993Z,18.80
2022-11-30T11:33:28.513Z,16.25
2022-11-30T11:36:08.194Z,17.65
2022-11-30T11:38:42.742Z,17.02
2022-11-30T11:41:20.893Z,18.27
2022-11-30T11:43:59.768Z,17.35
2022-11-30T11:46:27.394Z,17.83
2022-11-30T11:49:00.719Z,17.15
2022-11-30T11:51:40.236Z,17.30
2022-11-30T11:54:23.506Z,16.70
2022-11-30T11:56:51.123Z,16.60
2022-11-30T11:59:23.433Z,16.10
2022-11-30T12:02:02.871Z,16.13
2022-11-30T12:04:46.837Z,16.77
2022-11-30T12:07:40.343Z,16.10
2022-11-30T12:10:51.205Z,16.10
2022-11-30T12:16:01.512Z,16.85
2022-11-30T12:18:31.707Z,16.08
2022-11-30T12:21:01.190Z,17.08
2022-11-30T12:23:29.839Z,17.15
2022-11-30T12:26:08.650Z,16.10
2022-11-30T12:28:38.984Z,18.92
2022-11-30T12:31:11.729Z,19.35
2022-11-30T12:34:01.979Z,17.40
2022-11-30T12:36:48.174Z,17.42
2022-11-30T12:39:21.347Z,17.65
2022-11-30T12:41:51.721Z,16.73
2022-11-30T12:44:28.915Z,17.23
2022-11-30T12:47:09.308Z,17.65
2022-11-30T12:49:39.706Z,18.65
2022-11-30T12:52:24.251Z,17.13
2022-11-30T12:55:04.636Z,18.30
2022-11-30T12:57:32.026Z,17.52
2022-11-30T13:00:14.547Z,18.02
2022-11-30T13:02:42.134Z,18.60
2022-11-30T13:05:16.247Z,17.83
2022-11-30T13:07:45.954Z,17.95
2022-11-30T13:10:13.340Z,17.58
2022-11-30T13:12:43.548Z,18.60
2022-11-30T13:15:19.286Z,16.70
2022-11-30T13:17:47.358Z,17.80
2022-11-30T13:20:23.075Z,18.77
2022-11-30T13:23:08.954Z,19.55
2022-11-30T13:26:07.459Z,19.98
2022-11-30T13:28:41.832Z,17.45
2022-11-30T13:31:15.424Z,18.95
2022-11-30T13:33:48.319Z,18.70
2022-11-30T13:36:21.608Z,18.17
2022-11-30T13:39:09.687Z,18.23
2022-11-30T13:41:38.360Z,19.33
2022-11-30T13:44:06.342Z,17.85
2022-11-30T13:46:33.813Z,17.92
2022-11-30T13:49:11.279Z,17.58
2022-11-30T13:51:40.774Z,24.55
2022-11-30T13:54:31.273Z,19.65
2022-11-30T13:56:58.731Z,17.83
2022-11-30T13:59:28.905Z,17.00
2022-11-30T14:02:15.040Z,18.15
2022-11-30T14:04:46.192Z,17.67
2022-11-30T14:07:32.976Z,17.67
2022-11-30T14:10:00.677Z,17.48
2022-11-30T14:12:37.911Z,18.65
2022-11-30T14:15:25.573Z,18.30
2022-11-30T14:17:55.893Z,18.08
2022-11-30T14:20:25.275Z,18.52
2022-11-30T14:22:52.883Z,19.83
2022-11-30T14:25:21.578Z,19.17
2022-11-30T14:27:51.429Z,18.55
2022-11-30T14:30:23.734Z,19.17
2022-11-30T14:32:57.915Z,19.85
2022-11-30T14:35:25.560Z,19.17
2022-11-30T14:37:57.720Z,18.85
2022-11-30T14:40:27.467Z,18.60
2022-11-30T14:43:29.896Z,19.92
2022-11-30T14:46:04.397Z,19.67
2022-11-30T14:48:33.747Z,20.10
2022-11-30T14:51:03.705Z,19.45
2022-11-30T14:53:34.056Z,20.65
2022-11-30T14:56:23.260Z,20.42
2022-11-30T14:59:07.812Z,28.88
2022-11-30T15:01:35.321Z,22.45
2022-11-30T15:04:10.750Z,22.35
2022-11-30T15:06:39.435Z,20.83
2022-11-30T15:09:13.787Z,20.67
2022-11-30T15:11:42.601Z,20.25
2022-11-30T15:14:11.427Z,19.73
2022-11-30T15:16:38.911Z,24.10
2022-11-30T15:19:19.329Z,20.02
2022-11-30T15:21:47.663Z,19.10
2022-11-30T15:24:15.071Z,18.67
2022-11-30T15:27:10.997Z,19.27
2022-11-30T15:29:40.339Z,19.30
2022-11-30T15:32:09.249Z,18.83
2022-11-30T15:34:52.232Z,18.98
2022-11-30T15:37:28.240Z,18.85
2022-11-30T15:39:56.625Z,20.83
2022-11-30T15:42:41.139Z,19.30
2022-11-30T15:45:15.902Z,20.95
2022-11-30T15:47:43.372Z,18.95
2022-11-30T15:50:20.456Z,17.77
2022-11-30T15:52:49.074Z,17.58
2022-11-30T15:55:35.113Z,20.52
2022-11-30T15:58:03.398Z,20.45
2022-11-30T16:00:30.840Z,19.67
2022-11-30T16:03:11.116Z,21.45
2022-11-30T16:05:39.492Z,20.40
2022-11-30T16:08:14.992Z,19.55
2022-11-30T16:10:43.769Z,19.90
2022-11-30T16:13:15.521Z,19.45
2022-11-30T16:15:46.818Z,19.05
2022-11-30T16:18:17.614Z,19.50
2022-11-30T16:20:45.977Z,20.52
2022-11-30T16:23:15.252Z,21.10
2022-11-30T16:25:43.228Z,20.92
2022-11-30T16:28:14.611Z,21.95
2022-11-30T16:30:42.406Z,30.38
2022-11-30T16:33:20.421Z,25.60
2022-11-30T16:35:50.679Z,24.30
2022-11-30T16:38:18.677Z,24.30
2022-11-30T16:40:46.463Z,24.02
2022-11-30T16:43:13.970Z,22.95
2022-11-30T16:45:41.767Z,22.63
2022-11-30T16:48:11.910Z,24.00
2022-11-30T16:50:39.296Z,23.77
2022-11-30T16:53:06.774Z,24.02
2022-11-30T16:55:39.465Z,23.67
2022-11-30T16:58:07.033Z,23.63
2022-11-30T17:00:34.749Z,23.45
2022-11-30T17:03:20.453Z,24.27
2022-11-30T17:05:48.143Z,22.88
2022-11-30T17:08:15.459Z,24.65
2022-11-30T17:10:43.099Z,26.42
2022-11-30T17:13:13.507Z,23.75
2022-11-30T17:15:40.994Z,22.73
2022-11-30T17:18:08.507Z,23.38
2022-11-30T17:20:36.529Z,21.75
2022-11-30T17:23:04.562Z,22.42
2022-11-30T17:25:32.094Z,22.30
2022-11-30T17:28:00.187Z,21.38
2022-11-30T17:30:28.095Z,21.15
2022-11-30T17:32:55.583Z,21.92
2022-11-30T17:35:22.929Z,20.75
2022-11-30T17:37:50.465Z,22.00
2022-11-30T17:40:17.994Z,21.67
2022-11-30T17:42:45.282Z,20.75
2022-11-30T17:45:13.066Z,21.60
2022-11-30T17:47:40.499Z,22.70
2022-11-30T17:50:08.709Z,21.42
2022-11-30T17:52:35.961Z,22.75
2022-11-30T17:55:03.526Z,21.23
2022-11-30T17:57:30.807Z,23.02
2022-11-30T17:59:58.158Z,24.33
2022-11-30T18:02:25.746Z,22.88
2022-11-30T18:04:54.555Z,21.02
2022-11-30T18:07:22.312Z,24.65
2022-11-30T18:09:50.024Z,22.83
2022-11-30T18:12:17.247Z,23.08
2022-11-30T18:14:44.568Z,21.00
2022-11-30T18:17:11.987Z,21.23
2022-11-30T18:19:39.441Z,20.80
2022-11-30T18:22:06.766Z,20.92
2022-11-30T18:24:34.249Z,20.30
2022-11-30T18:27:01.556Z,20.27
2022-11-30T18:29:28.979Z,20.08
2022-11-30T18:31:56.381Z,20.08
2022-11-30T18:34:23.923Z,19.33
2022-11-30T18:36:51.241Z,19.98
2022-11-30T18:39:19.024Z,20.58
2022-11-30T18:41:46.327Z,19.52
2022-11-30T18:44:13.639Z,19.08
2022-11-30T18:46:41.250Z,20.70
2022-11-30T18:49:08.717Z,20.70
2022-11-30T18:51:36.073Z,21.27
2022-11-30T18:54:04.799Z,21.75
2022-11-30T18:56:33.391Z,22.50
2022-11-30T18:59:02.273Z,24.02
2022-11-30T19:01:29.889Z,23.30
2022-11-30T19:03:58.606Z,22.75
2022-11-30T19:06:28.293Z,24.85
2022-11-30T19:08:55.954Z,23.60
2022-11-30T19:11:23.272Z,23.58
2022-11-30T19:13:54.575Z,24.50
2022-11-30T19:16:22.230Z,23.70
2022-11-30T19:18:49.640Z,21.58
2022-11-30T19:21:18.265Z,22.30
2022-11-30T19:23:46.420Z,21.65
2022-11-30T19:26:14.351Z,19.67
2022-11-30T19:28:42.626Z,22.17
2022-11-30T19:31:14.457Z,26.35
2022-11-30T19:33:42.805Z,23.83
2022-11-30T19:36:13.136Z,24.52
2022-11-30T19:38:41.011Z,24.30
2022-11-30T19:41:11.759Z,23.88
2022-11-30T19:43:39.749Z,23.70
2022-11-30T19:46:08.092Z,26.05
2022-11-30T19:48:35.836Z,23.25
2022-11-30T19:51:13.250Z,21.70
2022-11-30T19:53:42.918Z,21.90
2022-11-30T19:56:31.312Z,21.02
2022-11-30T19:59:04.543Z,32.47
2022-11-30T20:01:33.345Z,68.18
2022-11-30T20:04:01.262Z,71.05
2022-11-30T20:06:29.921Z,55.17
2022-11-30T20:08:57.483Z,84.95
2022-11-30T20:11:25.256Z,90.93
2022-11-30T20:13:52.725Z,88.70
2022-11-30T20:16:21.186Z,102.75
2022-11-30T20:18:55.595Z,103.32
2022-11-30T20:21:25.347Z,32.95
2022-11-30T20:23:53.588Z,27.02
2022-11-30T20:26:20.890Z,27.95
2022-11-30T20:28:50.872Z,21.88
2022-11-30T20:31:19.080Z,19.60
2022-11-30T20:33:46.757Z,17.63
2022-11-30T20:36:15.611Z,17.98
2022-11-30T20:38:42.881Z,16.75
2022-11-30T20:41:11.985Z,16.20
2022-11-30T20:43:39.631Z,15.60
2022-11-30T20:46:13.859Z,15.32
2022-11-30T20:48:41.585Z,15.73
2022-11-30T20:54:00.795Z,15.02
2022-11-30T20:56:28.096Z,16.00
2022-11-30T20:58:55.535Z,16.13
2022-11-30T21:01:23.307Z,15.85
2022-11-30T21:03:51.448Z,15.18
2022-11-30T21:06:19.070Z,15.07
2022-11-30T21:08:46.630Z,14.93
2022-11-30T21:11:15.214Z,15.85
2022-11-30T21:13:44.054Z,15.95
2022-11-30T21:16:12.796Z,16.08
2022-11-30T21:18:40.840Z,17.88
2022-11-30T21:21:10.464Z,16.42
2022-11-30T21:23:37.935Z,15.73
2022-11-30T21:26:06.470Z,15.98
2022-11-30T21:28:38.087Z,17.00
2022-11-30T21:31:06.428Z,15.52
2022-11-30T21:33:34.951Z,16.00
2022-11-30T21:36:05.652Z,18.13
2022-11-30T21:38:33.369Z,16.77
2022-11-30T21:41:01.035Z,16.00
2022-11-30T21:43:29.219Z,16.13
2022-11-30T21:45:57.947Z,15.65
2022-11-30T21:48:25.356Z,16.42
2022-11-30T21:51:02.112Z,16.25
2022-11-30T21:53:30.103Z,16.38
2022-11-30T21:56:02.856Z,16.60
2022-11-30T21:58:31.721Z,16.00
2022-11-30T22:00:59.884Z,16.05
2022-11-30T22:03:27.653Z,15.50
2022-11-30T22:06:24.561Z,16.42
2022-11-30T22:08:51.914Z,16.60
2022-11-30T22:11:20.834Z,16.20
2022-11-30T22:13:52.397Z,15.98
2022-11-30T22:16:20.247Z,16.60
2022-11-30T22:18:47.948Z,16.38
2022-11-30T22:21:16.738Z,16.23
2022-11-30T22:23:45.178Z,17.23
2022-11-30T22:26:12.539Z,15.95
2022-11-30T22:28:40.343Z,17.20
2022-11-30T22:31:08.834Z,15.38
2022-11-30T22:33:37.415Z,16.08
2022-11-30T22:36:05.534Z,16.08
2022-11-30T22:38:33.092Z,16.30
2022-11-30T22:41:07.799Z,17.35
2022-11-30T22:43:35.450Z,15.30
2022-11-30T22:46:03.624Z,16.73
2022-11-30T22:48:31.913Z,16.48
2022-11-30T22:51:03.045Z,16.13
2022-11-30T22:53:30.477Z,16.27
2022-11-30T22:56:01.908Z,15.82
2022-11-30T22:58:29.581Z,15.95
2022-11-30T23:00:56.867Z,16.60
2022-11-30T23:03:25.714Z,15.50
2022-11-30T23:05:53.434Z,16.83
2022-11-30T23:08:20.952Z,16.27
2022-11-30T23:10:48.490Z,15.48
2022-11-30T23:13:15.843Z,16.35
2022-11-30T23:15:43.263Z,15.07
2022-11-30T23:18:10.862Z,16.02
2022-11-30T23:20:38.115Z,16.17
2022-11-30T23:23:05.468Z,16.48
2022-11-30T23:25:32.937Z,15.25
2022-11-30T23:28:00.318Z,15.57
2022-11-30T23:30:27.626Z,15.88
2022-11-30T23:32:57.926Z,15.32
2022-11-30T23:35:25.594Z,16.67
2022-11-30T23:37:52.938Z,16.50
2022-11-30T23:40:20.807Z,15.60
2022-11-30T23:42:48.127Z,16.65
2022-11-30T23:45:15.516Z,15.60
2022-11-30T23:47:43.090Z,15.55
2022-11-30T23:50:10.739Z,15.68
2022-11-30T23:52:38.065Z,16.38
2022-11-30T23:55:05.750Z,17.38
2022-11-30T23:57:33.016Z,16.88
